Terminal Aerodrome Forecast
Issued by NWS

Home | Current Version | Previous Version | Text Only | Print | Product List | Glossary On
Versions: 1 2 3 4 5 6 7 8 9 10 11 12 13 14
285
FTUS43 KMQT 090529
TAFIWD
TAF
KIWD 090529Z 0906/1006 33011G18KT 1 1/2SM -SHSN BLSN OVC010
      TEMPO 0907/0911 3/4SM -SHSN BKN006
     FM091800 34011G21KT 2SM -SHSN BLSN OVC012
     FM092000 34010G20KT 3SM -SHSN BLSN OVC015
     FM100000 34010G20KT 2SM -SHSN BLSN OVC015
      AMD LTD TO CLD VIS AND WIND=

USA.gov is the U.S. government's official web portal to all federal, state and local government web resources and services.